Orlando, Florida
Traffic Map
Current Weather Conditions
Orlando, Florida
Clear
Clear
23°
Feels Like: 23°
Wind Chill: 23° Ceiling: Unl
Heat Index: 23° Visibility: 10mi
Dew Point: 20° Wind: 5mph
Humidity: 82% Direction: 80° (E)
Pressure: 30.17in Gusts: 0mph
Raw Report DataKORL 280353Z AUTO 08004KT 10SM CLR 23/20 A3017 RMK AO2 SLP218 T02330200
Traffic Incident Summary
Active as of:
Severity:
Category:
InformationThere was an issue retrieving the traffic information for this location. Please try a different location or try again shortly.
Advertisements
Track Severe Weather on mobile